createdAt,value
2022-10-31T00:00:48.669Z,7.43
2022-10-31T00:03:16.943Z,7.00
2022-10-31T00:05:45.801Z,7.23
2022-10-31T00:08:13.635Z,7.30
2022-10-31T00:10:42.129Z,7.40
2022-10-31T00:13:10.824Z,6.13
2022-10-31T00:15:40.026Z,7.13
2022-10-31T00:18:10.822Z,6.97
2022-10-31T00:20:40.012Z,6.60
2022-10-31T00:23:08.624Z,6.67
2022-10-31T00:25:38.337Z,7.77
2022-10-31T00:28:07.480Z,7.17
2022-10-31T00:30:35.718Z,6.90
2022-10-31T00:33:05.652Z,7.03
2022-10-31T00:35:35.166Z,6.80
2022-10-31T00:38:02.947Z,6.97
2022-10-31T00:40:30.784Z,6.67
2022-10-31T00:42:59.030Z,7.23
2022-10-31T00:45:27.052Z,7.40
2022-10-31T00:47:54.844Z,6.57
2022-10-31T00:50:22.681Z,7.33
2022-10-31T00:52:52.220Z,7.00
2022-10-31T00:55:20.150Z,7.80
2022-10-31T00:57:49.244Z,6.80
2022-10-31T01:00:18.147Z,7.07
2022-10-31T01:02:46.023Z,7.33
2022-10-31T01:05:14.212Z,6.83
2022-10-31T01:07:43.211Z,7.23
2022-10-31T01:10:12.934Z,7.20
2022-10-31T01:12:42.119Z,7.10
2022-10-31T01:15:11.586Z,7.33
2022-10-31T01:17:39.839Z,7.20
2022-10-31T01:20:10.165Z,6.47
2022-10-31T01:22:37.954Z,7.30
2022-10-31T01:25:06.966Z,6.87
2022-10-31T01:27:36.240Z,7.33
2022-10-31T01:30:04.386Z,7.53
2022-10-31T01:32:32.325Z,7.47
2022-10-31T01:35:00.179Z,6.93
2022-10-31T01:37:28.112Z,7.40
2022-10-31T01:39:55.908Z,7.13
2022-10-31T01:42:24.979Z,7.57
2022-10-31T01:45:00.496Z,7.37
2022-10-31T01:47:45.325Z,7.27
2022-10-31T01:50:17.606Z,6.70
2022-10-31T01:52:48.401Z,6.97
2022-10-31T01:55:20.442Z,7.03
2022-10-31T01:57:52.960Z,7.13
2022-10-31T02:00:23.855Z,6.70
2022-10-31T02:02:53.209Z,6.73
2022-10-31T02:05:24.441Z,6.63
2022-10-31T02:07:58.270Z,6.83
2022-10-31T02:10:27.245Z,6.40
2022-10-31T02:12:59.549Z,7.77
2022-10-31T02:15:30.642Z,6.57
2022-10-31T02:17:59.079Z,6.20
2022-10-31T02:20:31.839Z,5.80
2022-10-31T02:23:27.404Z,6.00
2022-10-31T02:26:26.129Z,6.70
2022-10-31T02:29:18.214Z,6.03
2022-10-31T02:31:56.442Z,6.33
2022-10-31T02:34:31.084Z,6.80
2022-10-31T02:37:03.945Z,7.50
2022-10-31T02:39:40.960Z,7.43
2022-10-31T02:42:15.005Z,7.67
2022-10-31T02:44:51.734Z,7.87
2022-10-31T02:47:26.319Z,6.83
2022-10-31T02:49:59.524Z,7.23
2022-10-31T02:52:30.013Z,6.97
2022-10-31T02:54:58.160Z,6.93
2022-10-31T02:57:28.281Z,7.37
2022-10-31T03:00:00.687Z,7.07
2022-10-31T03:02:55.962Z,6.57
2022-10-31T03:05:38.269Z,6.23
2022-10-31T03:08:15.414Z,6.63
2022-10-31T03:10:49.408Z,7.10
2022-10-31T03:15:55.632Z,7.27
2022-10-31T03:18:31.194Z,6.60
2022-10-31T03:21:06.104Z,6.57
2022-10-31T03:23:36.600Z,7.00
2022-10-31T03:26:07.983Z,6.17
2022-10-31T03:28:39.732Z,7.13
2022-10-31T03:31:09.964Z,7.07
2022-10-31T03:33:42.385Z,6.97
2022-10-31T03:36:12.854Z,7.03
2022-10-31T03:38:43.518Z,7.37
2022-10-31T03:41:16.436Z,6.90
2022-10-31T03:43:49.970Z,7.00
2022-10-31T03:46:17.903Z,6.63
2022-10-31T03:48:47.088Z,6.87
2022-10-31T03:51:21.358Z,6.93
2022-10-31T03:53:55.382Z,6.17
2022-10-31T03:56:30.034Z,7.43
2022-10-31T03:59:02.574Z,6.30
2022-10-31T04:01:33.255Z,7.93
2022-10-31T04:04:04.184Z,7.10
2022-10-31T04:06:34.027Z,6.67
2022-10-31T04:09:05.713Z,6.60
2022-10-31T04:11:37.098Z,6.60
2022-10-31T04:14:06.848Z,7.10
2022-10-31T04:16:35.198Z,7.13
2022-10-31T04:19:04.416Z,6.40
2022-10-31T04:21:32.922Z,7.20
2022-10-31T04:24:00.888Z,7.33
2022-10-31T04:26:28.713Z,7.20
2022-10-31T04:28:56.597Z,7.43
2022-10-31T04:31:24.369Z,7.17
2022-10-31T04:33:52.173Z,7.53
2022-10-31T04:36:21.538Z,6.80
2022-10-31T04:38:49.300Z,6.90
2022-10-31T04:41:17.204Z,7.40
2022-10-31T04:43:45.044Z,7.33
2022-10-31T04:46:12.961Z,6.30
2022-10-31T04:48:40.951Z,7.20
2022-10-31T04:51:08.755Z,7.80
2022-10-31T04:53:38.052Z,6.70
2022-10-31T04:56:06.610Z,6.67
2022-10-31T04:58:34.643Z,7.33
2022-10-31T05:01:02.494Z,6.33
2022-10-31T05:03:30.343Z,6.87
2022-10-31T05:05:58.289Z,7.07
2022-10-31T05:08:26.120Z,7.40
2022-10-31T05:10:56.057Z,7.33
2022-10-31T05:13:25.083Z,6.73
2022-10-31T05:15:52.912Z,7.23
2022-10-31T05:18:20.969Z,7.37
2022-10-31T05:20:49.097Z,7.30
2022-10-31T05:23:16.933Z,6.60
2022-10-31T05:25:44.837Z,6.50
2022-10-31T05:28:17.212Z,7.03
2022-10-31T05:30:45.048Z,6.80
2022-10-31T05:33:14.451Z,7.13
2022-10-31T05:35:42.447Z,6.47
2022-10-31T05:38:10.222Z,6.90
2022-10-31T05:40:38.140Z,6.53
2022-10-31T05:43:06.117Z,6.77
2022-10-31T05:45:35.319Z,6.33
2022-10-31T05:48:04.158Z,6.17
2022-10-31T05:50:33.493Z,6.27
2022-10-31T05:53:02.841Z,7.30
2022-10-31T05:55:31.282Z,6.97
2022-10-31T05:57:59.819Z,6.53
2022-10-31T06:00:29.053Z,7.40
2022-10-31T06:03:02.453Z,6.43
2022-10-31T06:05:30.975Z,6.70
2022-10-31T06:07:59.509Z,6.90
2022-10-31T06:10:28.526Z,6.57
2022-10-31T06:12:56.603Z,6.57
2022-10-31T06:15:24.990Z,6.77
2022-10-31T06:18:05.480Z,6.57
2022-10-31T06:20:33.755Z,6.80
2022-10-31T06:23:02.199Z,6.63
2022-10-31T06:25:30.826Z,6.47
2022-10-31T06:27:58.815Z,6.33
2022-10-31T06:30:27.010Z,6.77
2022-10-31T06:32:54.800Z,6.97
2022-10-31T06:35:24.028Z,6.10
2022-10-31T06:37:55.200Z,6.93
2022-10-31T06:40:23.704Z,7.03
2022-10-31T06:42:59.212Z,7.10
2022-10-31T06:45:27.556Z,6.50
2022-10-31T06:48:16.139Z,7.30
2022-10-31T06:50:45.440Z,7.03
2022-10-31T06:53:14.189Z,7.73
2022-10-31T06:55:42.731Z,7.73
2022-10-31T06:58:11.982Z,7.47
2022-10-31T07:00:39.937Z,7.73
2022-10-31T07:03:09.500Z,7.83
2022-10-31T07:05:37.460Z,7.90
2022-10-31T07:08:09.478Z,6.87
2022-10-31T07:10:40.507Z,7.70
2022-10-31T07:13:13.495Z,7.90
2022-10-31T07:15:43.040Z,8.30
2022-10-31T07:18:12.678Z,7.60
2022-10-31T07:20:40.761Z,8.50
2022-10-31T07:23:10.870Z,8.47
2022-10-31T07:25:39.027Z,9.10
2022-10-31T07:28:06.984Z,8.50
2022-10-31T07:30:34.908Z,8.37
2022-10-31T07:33:02.761Z,7.60
2022-10-31T07:35:31.075Z,8.90
2022-10-31T07:37:59.856Z,8.37
2022-10-31T07:40:29.298Z,8.10
2022-10-31T07:42:59.740Z,9.10
2022-10-31T07:45:27.522Z,8.63
2022-10-31T07:47:55.714Z,7.87
2022-10-31T07:50:25.384Z,7.37
2022-10-31T07:53:01.649Z,7.60
2022-10-31T07:55:31.294Z,8.27
2022-10-31T07:58:00.654Z,8.23
2022-10-31T08:00:29.353Z,8.97
2022-10-31T08:03:01.891Z,9.40
2022-10-31T08:05:30.802Z,9.47
2022-10-31T08:07:59.220Z,7.90
2022-10-31T08:10:29.140Z,8.50
2022-10-31T08:13:00.141Z,9.10
2022-10-31T08:15:28.474Z,7.70
2022-10-31T08:17:56.360Z,9.57
2022-10-31T08:20:24.657Z,11.30
2022-10-31T08:22:57.283Z,9.67
2022-10-31T08:25:25.988Z,10.97
2022-10-31T08:27:54.370Z,11.13
2022-10-31T08:30:25.395Z,9.83
2022-10-31T08:33:00.684Z,11.77
2022-10-31T08:35:28.640Z,10.27
2022-10-31T08:37:57.118Z,10.97
2022-10-31T08:40:26.052Z,11.60
2022-10-31T08:43:01.589Z,10.80
2022-10-31T08:45:31.450Z,10.50
2022-10-31T08:48:01.071Z,10.60
2022-10-31T08:50:30.337Z,10.63
2022-10-31T08:53:06.283Z,10.63
2022-10-31T08:55:36.481Z,10.40
2022-10-31T08:58:06.003Z,10.37
2022-10-31T09:00:35.654Z,11.10
2022-10-31T09:03:05.692Z,10.73
2022-10-31T09:05:34.331Z,12.57
2022-10-31T09:08:03.946Z,13.13
2022-10-31T09:10:33.539Z,12.50
2022-10-31T09:13:02.824Z,13.80
2022-10-31T09:15:30.889Z,11.47
2022-10-31T09:18:00.462Z,14.07
2022-10-31T09:20:28.816Z,13.63
2022-10-31T09:23:00.361Z,12.20
2022-10-31T09:25:29.546Z,13.47
2022-10-31T09:28:01.495Z,13.30
2022-10-31T09:30:31.764Z,13.97
2022-10-31T09:33:02.406Z,14.93
2022-10-31T09:35:30.954Z,13.30
2022-10-31T09:38:00.018Z,15.53
2022-10-31T09:40:33.929Z,14.30
2022-10-31T09:43:10.478Z,14.83
2022-10-31T09:45:43.713Z,14.70
2022-10-31T09:48:31.793Z,15.23
2022-10-31T09:51:02.610Z,17.07
2022-10-31T09:53:36.342Z,14.73
2022-10-31T09:56:09.350Z,15.60
2022-10-31T09:58:43.667Z,16.40
2022-10-31T10:01:35.315Z,16.23
2022-10-31T10:04:20.995Z,16.17
2022-10-31T10:06:51.872Z,18.17
2022-10-31T10:12:01.590Z,16.63
2022-10-31T10:14:41.485Z,17.07
2022-10-31T10:17:22.917Z,15.87
2022-10-31T10:20:04.159Z,16.17
2022-10-31T10:22:41.165Z,16.40
2022-10-31T10:25:18.437Z,17.07
2022-10-31T10:27:56.761Z,16.10
2022-10-31T10:30:30.907Z,16.93
2022-10-31T10:33:00.713Z,15.87
2022-10-31T10:35:33.477Z,16.83
2022-10-31T10:38:11.337Z,15.90
2022-10-31T10:40:39.931Z,16.23
2022-10-31T10:43:21.381Z,16.17
2022-10-31T10:46:11.980Z,15.90
2022-10-31T10:48:57.930Z,15.00
2022-10-31T10:51:54.676Z,15.50
2022-10-31T10:54:56.579Z,15.90
2022-10-31T10:57:43.407Z,15.80
2022-10-31T11:00:20.592Z,15.40
2022-10-31T11:02:49.293Z,14.87
2022-10-31T11:05:25.061Z,17.50
2022-10-31T11:07:54.438Z,16.80
2022-10-31T11:10:22.432Z,16.13
2022-10-31T11:13:03.668Z,16.58
2022-10-31T11:15:35.921Z,17.60
2022-10-31T11:18:03.909Z,16.33
2022-10-31T11:20:35.635Z,15.85
2022-10-31T11:23:08.222Z,15.50
2022-10-31T11:25:36.271Z,15.88
2022-10-31T11:28:06.151Z,14.80
2022-10-31T11:30:46.138Z,15.27
2022-10-31T11:33:21.165Z,15.20
2022-10-31T11:35:53.396Z,14.68
2022-10-31T11:38:28.761Z,14.77
2022-10-31T11:41:00.216Z,15.18
2022-10-31T11:43:28.732Z,13.93
2022-10-31T11:45:56.734Z,13.88
2022-10-31T11:48:26.768Z,13.38
2022-10-31T11:50:57.795Z,13.15
2022-10-31T11:53:30.495Z,12.32
2022-10-31T11:56:08.214Z,12.23
2022-10-31T11:58:36.063Z,12.88
2022-10-31T12:01:04.064Z,12.57
2022-10-31T12:03:44.276Z,14.15
2022-10-31T12:06:20.718Z,12.05
2022-10-31T12:08:50.217Z,11.88
2022-10-31T12:11:41.016Z,12.23
2022-10-31T12:14:19.363Z,10.95
2022-10-31T12:16:52.589Z,11.45
2022-10-31T12:19:35.064Z,11.57
2022-10-31T12:22:13.927Z,11.05
2022-10-31T12:24:56.856Z,11.63
2022-10-31T12:27:37.323Z,11.02
2022-10-31T12:30:17.455Z,11.27
2022-10-31T12:33:07.057Z,10.90
2022-10-31T12:35:46.748Z,11.13
2022-10-31T12:38:28.945Z,10.25
2022-10-31T12:41:13.376Z,9.93
2022-10-31T12:43:48.544Z,10.15
2022-10-31T12:46:27.025Z,10.00
2022-10-31T12:49:18.624Z,9.73
2022-10-31T12:51:55.381Z,10.48
2022-10-31T12:54:45.507Z,9.10
2022-10-31T12:57:25.254Z,10.13
2022-10-31T12:59:58.920Z,9.23
2022-10-31T13:02:31.851Z,8.63
2022-10-31T13:05:04.502Z,9.15
2022-10-31T13:07:39.489Z,9.98
2022-10-31T13:10:17.324Z,8.68
2022-10-31T13:12:50.157Z,8.20
2022-10-31T13:15:23.034Z,8.32
2022-10-31T13:17:55.155Z,8.25
2022-10-31T13:20:27.785Z,7.97
2022-10-31T13:23:05.306Z,7.93
2022-10-31T13:25:46.782Z,7.03
2022-10-31T13:28:28.710Z,7.38
2022-10-31T13:30:56.582Z,7.60
2022-10-31T13:33:29.692Z,7.43
2022-10-31T13:36:16.912Z,7.32
2022-10-31T13:38:52.634Z,6.72
2022-10-31T13:41:35.060Z,7.28
2022-10-31T13:44:11.860Z,7.30
2022-10-31T13:49:39.035Z,7.47
2022-10-31T13:52:18.406Z,7.53
2022-10-31T13:54:48.189Z,7.22
2022-10-31T13:57:20.319Z,7.10
2022-10-31T13:59:53.680Z,6.93
2022-10-31T14:02:28.020Z,6.72
2022-10-31T14:05:00.304Z,7.53
2022-10-31T14:07:29.850Z,6.65
2022-10-31T14:10:01.399Z,6.55
2022-10-31T14:12:33.724Z,6.30
2022-10-31T14:15:07.746Z,6.30
2022-10-31T14:17:46.970Z,6.43
2022-10-31T14:20:40.812Z,6.35
2022-10-31T14:23:41.455Z,6.00
2022-10-31T14:26:21.323Z,6.38
2022-10-31T14:28:50.852Z,6.80
2022-10-31T14:31:37.502Z,6.55
2022-10-31T14:34:21.493Z,6.32
2022-10-31T14:37:01.402Z,6.07
2022-10-31T14:39:36.878Z,6.75
2022-10-31T14:42:22.709Z,6.45
2022-10-31T14:45:17.821Z,6.20
2022-10-31T14:47:58.295Z,6.07
2022-10-31T14:50:39.232Z,5.78
2022-10-31T14:53:08.271Z,6.32
2022-10-31T14:55:36.347Z,5.28
2022-10-31T14:58:09.281Z,5.63
2022-10-31T15:00:38.170Z,5.55
2022-10-31T15:03:16.732Z,5.47
2022-10-31T15:05:50.642Z,5.53
2022-10-31T15:08:32.951Z,5.53
2022-10-31T15:11:04.412Z,5.63
2022-10-31T15:13:32.310Z,5.32
2022-10-31T15:16:00.308Z,5.40
2022-10-31T15:18:30.643Z,5.90
2022-10-31T15:20:59.145Z,5.10
2022-10-31T15:23:29.355Z,4.85
2022-10-31T15:26:01.830Z,5.03
2022-10-31T15:28:30.287Z,5.10
2022-10-31T15:30:59.937Z,4.53
2022-10-31T15:33:38.305Z,4.80
2022-10-31T15:36:08.390Z,5.05
2022-10-31T15:38:36.423Z,5.10
2022-10-31T15:41:06.896Z,4.60
2022-10-31T15:43:37.735Z,5.50
2022-10-31T15:46:09.838Z,5.53
2022-10-31T15:48:41.574Z,5.43
2022-10-31T15:51:09.453Z,5.10
2022-10-31T15:53:43.937Z,4.55
2022-10-31T15:56:15.392Z,4.88
2022-10-31T15:58:48.151Z,4.78
2022-10-31T16:01:24.926Z,4.53
2022-10-31T16:04:06.650Z,4.70
2022-10-31T16:06:36.425Z,4.53
2022-10-31T16:09:06.155Z,4.70
2022-10-31T16:11:39.268Z,5.00
2022-10-31T16:14:16.245Z,4.57
2022-10-31T16:16:47.408Z,4.43
2022-10-31T16:19:21.550Z,4.97
2022-10-31T16:21:52.402Z,5.00
2022-10-31T16:24:24.722Z,4.78
2022-10-31T16:26:54.864Z,5.78
2022-10-31T16:29:30.751Z,4.78
2022-10-31T16:31:58.700Z,5.20
2022-10-31T16:34:27.923Z,5.03
2022-10-31T16:36:55.905Z,5.18
2022-10-31T16:39:23.743Z,4.85
2022-10-31T16:41:56.893Z,4.60
2022-10-31T16:44:26.901Z,4.63
2022-10-31T16:47:10.803Z,5.38
2022-10-31T16:49:40.244Z,4.50
2022-10-31T16:52:08.032Z,4.50
2022-10-31T16:54:36.210Z,5.15
2022-10-31T16:57:06.679Z,5.45
2022-10-31T16:59:36.216Z,5.45
2022-10-31T17:02:05.787Z,6.68
2022-10-31T17:04:33.759Z,5.88
2022-10-31T17:07:03.071Z,5.72
2022-10-31T17:09:31.025Z,5.90
2022-10-31T17:11:59.013Z,5.43
2022-10-31T17:14:27.579Z,5.40
2022-10-31T17:16:58.239Z,5.60
2022-10-31T17:19:26.034Z,5.68
2022-10-31T17:21:54.048Z,5.13
2022-10-31T17:24:23.477Z,5.43
2022-10-31T17:26:51.377Z,5.28
2022-10-31T17:31:47.090Z,5.65
2022-10-31T17:34:15.071Z,5.40
2022-10-31T17:36:42.872Z,5.28
2022-10-31T17:39:10.704Z,5.67
2022-10-31T17:41:39.891Z,5.10
2022-10-31T17:44:07.732Z,5.13
2022-10-31T17:46:35.555Z,5.28
2022-10-31T17:49:05.052Z,13.87
2022-10-31T17:51:32.901Z,5.73
2022-10-31T17:54:00.689Z,6.10
2022-10-31T17:56:28.465Z,5.88
2022-10-31T17:58:58.278Z,5.33
2022-10-31T18:01:26.259Z,5.22
2022-10-31T18:03:54.126Z,5.93
2022-10-31T18:06:21.976Z,5.80
2022-10-31T18:08:49.757Z,6.13
2022-10-31T18:11:20.809Z,6.17
2022-10-31T18:13:48.713Z,6.30
2022-10-31T18:16:19.694Z,5.05
2022-10-31T18:18:51.653Z,5.00
2022-10-31T18:21:19.514Z,4.97
2022-10-31T18:23:47.793Z,4.30
2022-10-31T18:26:15.735Z,3.83
2022-10-31T18:28:43.654Z,4.07
2022-10-31T18:31:11.588Z,3.77
2022-10-31T18:33:42.507Z,3.67
2022-10-31T18:36:12.203Z,3.50
2022-10-31T18:38:41.721Z,3.50
2022-10-31T18:41:10.246Z,3.63
2022-10-31T18:43:38.586Z,3.53
2022-10-31T18:46:08.919Z,3.10
2022-10-31T18:48:37.313Z,2.87
2022-10-31T18:51:08.534Z,3.50
2022-10-31T18:53:37.372Z,3.00
2022-10-31T18:56:08.887Z,3.20
2022-10-31T18:58:37.078Z,3.33
2022-10-31T19:01:07.874Z,3.60
2022-10-31T19:03:35.869Z,3.03
2022-10-31T19:06:04.102Z,3.07
2022-10-31T19:08:33.868Z,3.30
2022-10-31T19:17:22.053Z,3.20
2022-10-31T19:29:57.330Z,3.50
2022-10-31T19:32:29.583Z,3.33
2022-10-31T19:38:56.473Z,3.37
2022-10-31T19:44:51.496Z,3.27
2022-10-31T19:47:44.032Z,2.93
2022-10-31T19:51:39.084Z,3.20
2022-10-31T19:54:41.066Z,3.37
2022-10-31T19:58:05.401Z,3.63
2022-10-31T20:00:37.881Z,3.40
2022-10-31T20:09:21.267Z,3.47
2022-10-31T20:12:21.626Z,3.93
2022-10-31T20:15:48.351Z,3.80
2022-10-31T20:24:39.546Z,3.80
2022-10-31T20:34:28.754Z,3.43
2022-10-31T20:37:00.140Z,4.00
2022-10-31T20:43:13.342Z,3.73
2022-10-31T20:52:53.607Z,3.13
2022-10-31T20:55:34.827Z,3.50
2022-10-31T21:04:46.590Z,3.67
2022-10-31T21:07:17.232Z,3.90
2022-10-31T21:10:40.846Z,3.87
2022-10-31T21:20:22.777Z,3.93
2022-10-31T21:25:56.726Z,3.57
2022-10-31T21:29:08.416Z,3.97
2022-10-31T21:31:43.268Z,3.50
2022-10-31T21:34:35.523Z,3.27
2022-10-31T21:37:25.028Z,3.10
2022-10-31T21:42:57.133Z,2.93
2022-10-31T21:45:25.610Z,2.90
2022-10-31T21:47:53.845Z,3.30
2022-10-31T21:50:22.712Z,3.30
2022-10-31T21:52:52.253Z,3.60
2022-10-31T21:55:19.352Z,3.90
2022-10-31T21:57:47.322Z,3.87
2022-10-31T22:00:16.137Z,3.30
2022-10-31T22:02:44.327Z,3.40
2022-10-31T22:05:12.492Z,3.60
2022-10-31T22:07:40.726Z,3.20
2022-10-31T22:10:11.615Z,3.87
2022-10-31T22:12:39.708Z,3.57
2022-10-31T22:15:08.710Z,3.07
2022-10-31T22:17:37.370Z,3.37
2022-10-31T22:20:06.245Z,4.17
2022-10-31T22:22:34.292Z,3.77
2022-10-31T22:25:02.320Z,3.63
2022-10-31T22:27:31.847Z,3.33
2022-10-31T22:30:00.145Z,3.20
2022-10-31T22:32:28.461Z,3.83
2022-10-31T22:34:56.645Z,3.77
2022-10-31T22:37:24.720Z,3.23
2022-10-31T22:39:52.973Z,3.70
2022-10-31T22:42:21.232Z,3.20
2022-10-31T22:44:50.852Z,3.60
2022-10-31T22:47:18.906Z,3.37
2022-10-31T22:49:47.294Z,3.97
2022-10-31T22:52:15.470Z,3.50
2022-10-31T22:54:44.188Z,3.80
2022-10-31T22:57:12.300Z,3.27
2022-10-31T22:59:40.439Z,3.30
2022-10-31T23:02:12.436Z,3.60
2022-10-31T23:04:40.860Z,3.70
2022-10-31T23:07:11.282Z,3.87
2022-10-31T23:09:42.085Z,3.23
2022-10-31T23:12:33.303Z,3.40
2022-10-31T23:15:01.680Z,3.20
2022-10-31T23:17:31.332Z,2.83
2022-10-31T23:19:59.420Z,3.63
2022-10-31T23:22:27.638Z,3.20
2022-10-31T23:24:55.756Z,3.40
2022-10-31T23:27:24.644Z,3.28
2022-10-31T23:29:54.208Z,3.50
2022-10-31T23:32:25.143Z,3.73
2022-10-31T23:34:56.827Z,3.23
2022-10-31T23:37:27.110Z,3.53
2022-10-31T23:39:55.318Z,3.77
2022-10-31T23:42:24.274Z,3.40
2022-10-31T23:44:52.753Z,3.53
2022-10-31T23:47:21.332Z,3.78
2022-10-31T23:49:49.650Z,4.20
2022-10-31T23:52:19.643Z,3.70
2022-10-31T23:54:47.782Z,3.55
2022-10-31T23:57:17.308Z,3.08
2022-10-31T23:59:46.612Z,3.80
